sensor_id;sensor_type;location;lat;lon;timestamp;P1;durP1;ratioP1;P2;durP2;ratioP2
34481;SDS011;20720;48.886;9.388;2023-02-12T00:00:30;34.78;;;19.55;;
34481;SDS011;20720;48.886;9.388;2023-02-12T00:02:55;35.95;;;18.95;;
34481;SDS011;20720;48.886;9.388;2023-02-12T00:05:20;33.55;;;19.88;;
34481;SDS011;20720;48.886;9.388;2023-02-12T00:07:45;35.95;;;19.88;;
34481;SDS011;20720;48.886;9.388;2023-02-12T00:10:11;32.60;;;17.75;;
34481;SDS011;20720;48.886;9.388;2023-02-12T00:12:37;31.58;;;18.90;;
34481;SDS011;20720;48.886;9.388;2023-02-12T00:15:02;31.05;;;17.60;;
34481;SDS011;20720;48.886;9.388;2023-02-12T00:17:28;32.17;;;18.63;;
34481;SDS011;20720;48.886;9.388;2023-02-12T00:19:53;37.75;;;20.85;;
34481;SDS011;20720;48.886;9.388;2023-02-12T00:22:18;37.88;;;21.10;;
34481;SDS011;20720;48.886;9.388;2023-02-12T00:24:43;38.40;;;20.20;;
34481;SDS011;20720;48.886;9.388;2023-02-12T00:27:09;35.40;;;20.25;;
34481;SDS011;20720;48.886;9.388;2023-02-12T00:29:34;31.45;;;18.15;;
34481;SDS011;20720;48.886;9.388;2023-02-12T00:32:01;41.28;;;20.42;;
34481;SDS011;20720;48.886;9.388;2023-02-12T00:34:26;31.13;;;18.73;;
34481;SDS011;20720;48.886;9.388;2023-02-12T00:36:51;32.83;;;19.33;;
34481;SDS011;20720;48.886;9.388;2023-02-12T00:39:16;32.55;;;18.63;;
34481;SDS011;20720;48.886;9.388;2023-02-12T00:41:42;30.80;;;17.23;;
34481;SDS011;20720;48.886;9.388;2023-02-12T00:44:07;32.65;;;19.30;;
34481;SDS011;20720;48.886;9.388;2023-02-12T00:46:32;32.40;;;19.58;;
34481;SDS011;20720;48.886;9.388;2023-02-12T00:48:58;36.42;;;20.60;;
34481;SDS011;20720;48.886;9.388;2023-02-12T00:51:23;31.98;;;18.88;;
34481;SDS011;20720;48.886;9.388;2023-02-12T00:53:48;32.28;;;19.35;;
34481;SDS011;20720;48.886;9.388;2023-02-12T00:56:13;33.40;;;19.23;;
34481;SDS011;20720;48.886;9.388;2023-02-12T00:58:39;34.58;;;20.13;;
34481;SDS011;20720;48.886;9.388;2023-02-12T01:01:04;34.75;;;19.80;;
34481;SDS011;20720;48.886;9.388;2023-02-12T01:03:29;32.30;;;19.52;;
34481;SDS011;20720;48.886;9.388;2023-02-12T01:05:55;35.72;;;19.70;;
34481;SDS011;20720;48.886;9.388;2023-02-12T01:08:21;36.83;;;20.63;;
34481;SDS011;20720;48.886;9.388;2023-02-12T01:10:52;32.10;;;18.27;;
34481;SDS011;20720;48.886;9.388;2023-02-12T01:15:44;32.33;;;17.87;;
34481;SDS011;20720;48.886;9.388;2023-02-12T01:18:09;32.78;;;19.13;;
34481;SDS011;20720;48.886;9.388;2023-02-12T01:20:35;34.58;;;19.52;;
34481;SDS011;20720;48.886;9.388;2023-02-12T01:23:00;32.40;;;19.35;;
34481;SDS011;20720;48.886;9.388;2023-02-12T01:25:26;31.60;;;18.50;;
34481;SDS011;20720;48.886;9.388;2023-02-12T01:27:52;33.75;;;19.65;;
34481;SDS011;20720;48.886;9.388;2023-02-12T01:30:18;36.45;;;19.42;;
34481;SDS011;20720;48.886;9.388;2023-02-12T01:32:46;37.25;;;19.65;;
34481;SDS011;20720;48.886;9.388;2023-02-12T01:35:11;32.45;;;19.48;;
34481;SDS011;20720;48.886;9.388;2023-02-12T01:37:36;33.22;;;19.85;;
34481;SDS011;20720;48.886;9.388;2023-02-12T01:40:03;30.92;;;18.48;;
34481;SDS011;20720;48.886;9.388;2023-02-12T01:42:29;32.08;;;18.90;;
34481;SDS011;20720;48.886;9.388;2023-02-12T01:47:39;33.33;;;19.92;;
34481;SDS011;20720;48.886;9.388;2023-02-12T01:50:06;31.88;;;18.08;;
34481;SDS011;20720;48.886;9.388;2023-02-12T01:52:35;32.30;;;19.02;;
34481;SDS011;20720;48.886;9.388;2023-02-12T01:55:03;34.05;;;20.05;;
34481;SDS011;20720;48.886;9.388;2023-02-12T01:57:34;37.08;;;20.63;;
34481;SDS011;20720;48.886;9.388;2023-02-12T02:00:04;36.55;;;19.20;;
34481;SDS011;20720;48.886;9.388;2023-02-12T02:02:33;33.22;;;19.63;;
34481;SDS011;20720;48.886;9.388;2023-02-12T02:05:00;33.83;;;19.30;;
34481;SDS011;20720;48.886;9.388;2023-02-12T02:07:27;33.20;;;19.10;;
34481;SDS011;20720;48.886;9.388;2023-02-12T02:09:54;38.17;;;19.50;;
34481;SDS011;20720;48.886;9.388;2023-02-12T02:12:20;32.50;;;19.38;;
34481;SDS011;20720;48.886;9.388;2023-02-12T02:15:04;33.10;;;17.98;;
34481;SDS011;20720;48.886;9.388;2023-02-12T02:31:57;33.00;;;20.20;;
34481;SDS011;20720;48.886;9.388;2023-02-12T02:34:41;31.83;;;19.02;;
34481;SDS011;20720;48.886;9.388;2023-02-12T02:39:58;33.00;;;19.38;;
34481;SDS011;20720;48.886;9.388;2023-02-12T02:45:28;33.63;;;20.20;;
34481;SDS011;20720;48.886;9.388;2023-02-12T02:48:08;34.25;;;19.75;;
34481;SDS011;20720;48.886;9.388;2023-02-12T02:50:37;34.40;;;20.38;;
34481;SDS011;20720;48.886;9.388;2023-02-12T02:53:09;32.20;;;19.08;;
34481;SDS011;20720;48.886;9.388;2023-02-12T02:55:39;31.55;;;18.98;;
34481;SDS011;20720;48.886;9.388;2023-02-12T03:00:42;30.92;;;17.15;;
34481;SDS011;20720;48.886;9.388;2023-02-12T03:03:21;30.02;;;17.55;;
34481;SDS011;20720;48.886;9.388;2023-02-12T03:05:48;34.20;;;18.60;;
34481;SDS011;20720;48.886;9.388;2023-02-12T03:10:50;33.88;;;18.02;;
34481;SDS011;20720;48.886;9.388;2023-02-12T03:13:25;28.02;;;16.85;;
34481;SDS011;20720;48.886;9.388;2023-02-12T03:18:35;34.47;;;19.05;;
34481;SDS011;20720;48.886;9.388;2023-02-12T03:21:08;35.08;;;19.75;;
34481;SDS011;20720;48.886;9.388;2023-02-12T03:24:25;36.25;;;20.23;;
34481;SDS011;20720;48.886;9.388;2023-02-12T03:26:37;31.75;;;18.38;;
34481;SDS011;20720;48.886;9.388;2023-02-12T03:29:07;31.42;;;18.52;;
34481;SDS011;20720;48.886;9.388;2023-02-12T03:31:45;30.55;;;17.25;;
34481;SDS011;20720;48.886;9.388;2023-02-12T03:37:05;31.90;;;19.23;;
34481;SDS011;20720;48.886;9.388;2023-02-12T03:39:42;29.08;;;18.02;;
34481;SDS011;20720;48.886;9.388;2023-02-12T03:42:17;33.92;;;18.85;;
34481;SDS011;20720;48.886;9.388;2023-02-12T03:45:25;32.83;;;18.83;;
34481;SDS011;20720;48.886;9.388;2023-02-12T03:48:09;28.00;;;17.25;;
34481;SDS011;20720;48.886;9.388;2023-02-12T03:50:52;31.65;;;18.83;;
34481;SDS011;20720;48.886;9.388;2023-02-12T03:53:21;29.48;;;18.02;;
34481;SDS011;20720;48.886;9.388;2023-02-12T03:55:48;33.85;;;19.45;;
34481;SDS011;20720;48.886;9.388;2023-02-12T03:58:22;33.67;;;19.60;;
34481;SDS011;20720;48.886;9.388;2023-02-12T04:00:51;29.95;;;18.20;;
34481;SDS011;20720;48.886;9.388;2023-02-12T04:03:17;32.13;;;19.52;;
34481;SDS011;20720;48.886;9.388;2023-02-12T04:05:42;32.50;;;19.45;;
34481;SDS011;20720;48.886;9.388;2023-02-12T04:08:08;35.53;;;20.45;;
34481;SDS011;20720;48.886;9.388;2023-02-12T04:13:44;30.98;;;18.98;;
34481;SDS011;20720;48.886;9.388;2023-02-12T04:16:27;30.48;;;18.25;;
34481;SDS011;20720;48.886;9.388;2023-02-12T04:21:53;32.83;;;17.75;;
34481;SDS011;20720;48.886;9.388;2023-02-12T04:24:49;36.90;;;19.45;;
34481;SDS011;20720;48.886;9.388;2023-02-12T04:27:34;31.73;;;18.92;;
34481;SDS011;20720;48.886;9.388;2023-02-12T04:30:13;34.90;;;19.85;;
34481;SDS011;20720;48.886;9.388;2023-02-12T04:32:50;35.45;;;21.73;;
34481;SDS011;20720;48.886;9.388;2023-02-12T04:35:33;37.00;;;20.70;;
34481;SDS011;20720;48.886;9.388;2023-02-12T04:40:44;34.42;;;20.48;;
34481;SDS011;20720;48.886;9.388;2023-02-12T04:43:11;33.60;;;19.88;;
34481;SDS011;20720;48.886;9.388;2023-02-12T04:45:37;33.10;;;19.77;;
34481;SDS011;20720;48.886;9.388;2023-02-12T04:48:02;33.95;;;20.50;;
34481;SDS011;20720;48.886;9.388;2023-02-12T04:50:35;36.15;;;21.50;;
34481;SDS011;20720;48.886;9.388;2023-02-12T04:53:03;38.33;;;21.00;;
34481;SDS011;20720;48.886;9.388;2023-02-12T04:55:28;35.90;;;20.90;;
34481;SDS011;20720;48.886;9.388;2023-02-12T04:57:53;35.20;;;21.42;;
34481;SDS011;20720;48.886;9.388;2023-02-12T05:00:19;36.67;;;21.38;;
34481;SDS011;20720;48.886;9.388;2023-02-12T05:02:44;33.45;;;20.20;;
34481;SDS011;20720;48.886;9.388;2023-02-12T05:05:09;34.47;;;20.33;;
34481;SDS011;20720;48.886;9.388;2023-02-12T05:07:35;34.60;;;21.05;;
34481;SDS011;20720;48.886;9.388;2023-02-12T05:10:00;39.92;;;21.92;;
34481;SDS011;20720;48.886;9.388;2023-02-12T05:12:26;39.47;;;23.25;;
34481;SDS011;20720;48.886;9.388;2023-02-12T05:14:51;38.75;;;22.48;;
34481;SDS011;20720;48.886;9.388;2023-02-12T05:17:16;35.05;;;21.98;;
34481;SDS011;20720;48.886;9.388;2023-02-12T05:19:41;40.88;;;21.95;;
34481;SDS011;20720;48.886;9.388;2023-02-12T05:22:07;38.05;;;21.98;;
34481;SDS011;20720;48.886;9.388;2023-02-12T05:24:32;37.17;;;22.52;;
34481;SDS011;20720;48.886;9.388;2023-02-12T05:26:57;41.50;;;22.33;;
34481;SDS011;20720;48.886;9.388;2023-02-12T05:29:22;38.47;;;23.00;;
34481;SDS011;20720;48.886;9.388;2023-02-12T05:31:48;40.30;;;23.90;;
34481;SDS011;20720;48.886;9.388;2023-02-12T05:34:13;39.05;;;23.17;;
34481;SDS011;20720;48.886;9.388;2023-02-12T05:36:38;37.70;;;22.80;;
34481;SDS011;20720;48.886;9.388;2023-02-12T05:39:04;41.70;;;23.42;;
34481;SDS011;20720;48.886;9.388;2023-02-12T05:41:31;39.58;;;23.85;;
34481;SDS011;20720;48.886;9.388;2023-02-12T05:43:59;40.22;;;23.60;;
34481;SDS011;20720;48.886;9.388;2023-02-12T05:46:28;37.95;;;23.52;;
34481;SDS011;20720;48.886;9.388;2023-02-12T05:48:54;42.05;;;24.05;;
34481;SDS011;20720;48.886;9.388;2023-02-12T05:51:22;39.25;;;22.17;;
34481;SDS011;20720;48.886;9.388;2023-02-12T05:53:52;39.92;;;22.92;;
34481;SDS011;20720;48.886;9.388;2023-02-12T05:56:22;43.35;;;22.73;;
34481;SDS011;20720;48.886;9.388;2023-02-12T05:58:54;43.22;;;24.80;;
34481;SDS011;20720;48.886;9.388;2023-02-12T06:01:31;45.42;;;24.95;;
34481;SDS011;20720;48.886;9.388;2023-02-12T06:03:59;45.70;;;24.95;;
34481;SDS011;20720;48.886;9.388;2023-02-12T06:06:26;39.15;;;22.38;;
34481;SDS011;20720;48.886;9.388;2023-02-12T06:08:52;39.35;;;23.20;;
34481;SDS011;20720;48.886;9.388;2023-02-12T06:11:17;41.70;;;23.23;;
34481;SDS011;20720;48.886;9.388;2023-02-12T06:13:44;44.28;;;24.15;;
34481;SDS011;20720;48.886;9.388;2023-02-12T06:18:45;40.88;;;23.50;;
34481;SDS011;20720;48.886;9.388;2023-02-12T06:21:11;35.72;;;20.95;;
34481;SDS011;20720;48.886;9.388;2023-02-12T06:23:36;36.58;;;21.65;;
34481;SDS011;20720;48.886;9.388;2023-02-12T06:26:01;34.65;;;21.35;;
34481;SDS011;20720;48.886;9.388;2023-02-12T06:28:27;34.70;;;21.50;;
34481;SDS011;20720;48.886;9.388;2023-02-12T06:30:52;37.20;;;22.42;;
34481;SDS011;20720;48.886;9.388;2023-02-12T06:33:17;40.60;;;23.73;;
34481;SDS011;20720;48.886;9.388;2023-02-12T06:35:43;43.22;;;25.10;;
34481;SDS011;20720;48.886;9.388;2023-02-12T06:38:08;49.08;;;27.45;;
34481;SDS011;20720;48.886;9.388;2023-02-12T06:40:34;47.17;;;26.90;;
34481;SDS011;20720;48.886;9.388;2023-02-12T06:42:59;48.75;;;27.23;;
34481;SDS011;20720;48.886;9.388;2023-02-12T06:45:24;44.42;;;26.15;;
34481;SDS011;20720;48.886;9.388;2023-02-12T06:47:50;48.00;;;25.90;;
34481;SDS011;20720;48.886;9.388;2023-02-12T06:50:15;47.13;;;26.23;;
34481;SDS011;20720;48.886;9.388;2023-02-12T06:52:41;41.95;;;24.65;;
34481;SDS011;20720;48.886;9.388;2023-02-12T06:55:06;40.80;;;24.27;;
34481;SDS011;20720;48.886;9.388;2023-02-12T06:57:31;44.22;;;24.65;;
34481;SDS011;20720;48.886;9.388;2023-02-12T06:59:57;44.17;;;26.20;;
34481;SDS011;20720;48.886;9.388;2023-02-12T07:02:22;41.53;;;24.25;;
34481;SDS011;20720;48.886;9.388;2023-02-12T07:04:47;41.13;;;24.58;;
34481;SDS011;20720;48.886;9.388;2023-02-12T07:07:13;38.28;;;23.35;;
34481;SDS011;20720;48.886;9.388;2023-02-12T07:09:38;41.97;;;23.08;;
34481;SDS011;20720;48.886;9.388;2023-02-12T07:12:03;48.55;;;25.80;;
34481;SDS011;20720;48.886;9.388;2023-02-12T07:14:29;42.15;;;24.98;;
34481;SDS011;20720;48.886;9.388;2023-02-12T07:16:54;40.67;;;24.23;;
34481;SDS011;20720;48.886;9.388;2023-02-12T07:19:20;42.40;;;23.92;;
34481;SDS011;20720;48.886;9.388;2023-02-12T07:21:46;42.63;;;24.00;;
34481;SDS011;20720;48.886;9.388;2023-02-12T07:24:12;40.08;;;21.77;;
34481;SDS011;20720;48.886;9.388;2023-02-12T07:26:38;37.85;;;21.75;;
34481;SDS011;20720;48.886;9.388;2023-02-12T07:29:04;43.33;;;23.63;;
34481;SDS011;20720;48.886;9.388;2023-02-12T07:31:29;43.28;;;24.83;;
34481;SDS011;20720;48.886;9.388;2023-02-12T07:33:55;46.22;;;26.55;;
34481;SDS011;20720;48.886;9.388;2023-02-12T07:36:22;42.85;;;25.25;;
34481;SDS011;20720;48.886;9.388;2023-02-12T07:38:49;45.78;;;24.65;;
34481;SDS011;20720;48.886;9.388;2023-02-12T07:41:16;38.78;;;21.83;;
34481;SDS011;20720;48.886;9.388;2023-02-12T07:43:44;42.35;;;24.90;;
34481;SDS011;20720;48.886;9.388;2023-02-12T07:46:21;45.13;;;26.63;;
34481;SDS011;20720;48.886;9.388;2023-02-12T07:48:50;39.15;;;23.80;;
34481;SDS011;20720;48.886;9.388;2023-02-12T07:51:16;41.10;;;23.38;;
34481;SDS011;20720;48.886;9.388;2023-02-12T07:53:45;43.80;;;25.00;;
34481;SDS011;20720;48.886;9.388;2023-02-12T07:56:12;43.78;;;24.50;;
34481;SDS011;20720;48.886;9.388;2023-02-12T07:58:40;43.53;;;24.95;;
34481;SDS011;20720;48.886;9.388;2023-02-12T08:03:44;53.08;;;29.85;;
34481;SDS011;20720;48.886;9.388;2023-02-12T08:06:15;52.55;;;28.30;;
34481;SDS011;20720;48.886;9.388;2023-02-12T08:08:43;45.70;;;26.63;;
34481;SDS011;20720;48.886;9.388;2023-02-12T08:11:09;43.40;;;23.80;;
34481;SDS011;20720;48.886;9.388;2023-02-12T08:13:35;45.20;;;25.48;;
34481;SDS011;20720;48.886;9.388;2023-02-12T08:16:02;46.47;;;25.15;;
34481;SDS011;20720;48.886;9.388;2023-02-12T08:18:30;45.97;;;27.08;;
34481;SDS011;20720;48.886;9.388;2023-02-12T08:21:00;41.13;;;23.80;;
34481;SDS011;20720;48.886;9.388;2023-02-12T08:23:33;44.55;;;26.05;;
34481;SDS011;20720;48.886;9.388;2023-02-12T08:26:12;45.15;;;25.50;;
34481;SDS011;20720;48.886;9.388;2023-02-12T08:28:42;43.73;;;25.60;;
34481;SDS011;20720;48.886;9.388;2023-02-12T08:31:11;44.63;;;25.42;;
34481;SDS011;20720;48.886;9.388;2023-02-12T08:33:41;49.05;;;28.77;;
34481;SDS011;20720;48.886;9.388;2023-02-12T08:36:09;50.33;;;28.98;;
34481;SDS011;20720;48.886;9.388;2023-02-12T08:38:36;52.28;;;29.92;;
34481;SDS011;20720;48.886;9.388;2023-02-12T08:41:06;41.35;;;24.38;;
34481;SDS011;20720;48.886;9.388;2023-02-12T08:43:34;49.42;;;26.60;;
34481;SDS011;20720;48.886;9.388;2023-02-12T08:46:00;48.88;;;27.13;;
34481;SDS011;20720;48.886;9.388;2023-02-12T08:48:27;46.17;;;28.30;;
34481;SDS011;20720;48.886;9.388;2023-02-12T08:50:52;51.28;;;31.05;;
34481;SDS011;20720;48.886;9.388;2023-02-12T08:53:17;50.50;;;28.98;;
34481;SDS011;20720;48.886;9.388;2023-02-12T08:55:49;50.22;;;29.95;;
34481;SDS011;20720;48.886;9.388;2023-02-12T08:58:14;51.15;;;28.00;;
34481;SDS011;20720;48.886;9.388;2023-02-12T09:00:40;54.85;;;32.58;;
34481;SDS011;20720;48.886;9.388;2023-02-12T09:03:05;51.78;;;30.10;;
34481;SDS011;20720;48.886;9.388;2023-02-12T09:05:30;50.13;;;28.63;;
34481;SDS011;20720;48.886;9.388;2023-02-12T09:07:56;55.78;;;31.67;;
34481;SDS011;20720;48.886;9.388;2023-02-12T09:10:21;48.85;;;29.80;;
34481;SDS011;20720;48.886;9.388;2023-02-12T09:12:46;52.72;;;29.35;;
34481;SDS011;20720;48.886;9.388;2023-02-12T09:15:12;47.13;;;27.80;;
34481;SDS011;20720;48.886;9.388;2023-02-12T09:17:37;44.95;;;26.08;;
34481;SDS011;20720;48.886;9.388;2023-02-12T09:20:05;42.28;;;25.45;;
34481;SDS011;20720;48.886;9.388;2023-02-12T09:22:31;48.22;;;26.42;;
34481;SDS011;20720;48.886;9.388;2023-02-12T09:24:56;44.50;;;26.73;;
34481;SDS011;20720;48.886;9.388;2023-02-12T09:27:21;48.45;;;28.30;;
34481;SDS011;20720;48.886;9.388;2023-02-12T09:29:47;41.67;;;24.73;;
34481;SDS011;20720;48.886;9.388;2023-02-12T09:32:12;43.78;;;26.77;;
34481;SDS011;20720;48.886;9.388;2023-02-12T09:34:37;48.00;;;27.95;;
34481;SDS011;20720;48.886;9.388;2023-02-12T09:37:02;43.60;;;26.17;;
34481;SDS011;20720;48.886;9.388;2023-02-12T09:39:27;46.33;;;26.25;;
34481;SDS011;20720;48.886;9.388;2023-02-12T09:47:30;45.10;;;25.58;;
34481;SDS011;20720;48.886;9.388;2023-02-12T09:50:05;41.22;;;25.17;;
34481;SDS011;20720;48.886;9.388;2023-02-12T09:52:42;40.92;;;24.50;;
34481;SDS011;20720;48.886;9.388;2023-02-12T09:55:17;42.38;;;25.40;;
34481;SDS011;20720;48.886;9.388;2023-02-12T09:57:43;40.30;;;24.88;;
34481;SDS011;20720;48.886;9.388;2023-02-12T10:02:46;44.38;;;26.73;;
34481;SDS011;20720;48.886;9.388;2023-02-12T10:05:21;40.95;;;24.45;;
34481;SDS011;20720;48.886;9.388;2023-02-12T10:13:54;39.83;;;22.85;;
34481;SDS011;20720;48.886;9.388;2023-02-12T10:27:40;31.35;;;20.42;;
34481;SDS011;20720;48.886;9.388;2023-02-12T10:30:25;24.67;;;15.55;;
34481;SDS011;20720;48.886;9.388;2023-02-12T10:32:53;17.35;;;10.27;;
34481;SDS011;20720;48.886;9.388;2023-02-12T10:35:24;13.45;;;7.07;;
34481;SDS011;20720;48.886;9.388;2023-02-12T10:40:32;8.18;;;4.78;;
34481;SDS011;20720;48.886;9.388;2023-02-12T10:43:01;9.88;;;5.63;;
34481;SDS011;20720;48.886;9.388;2023-02-12T10:45:31;8.20;;;4.78;;
34481;SDS011;20720;48.886;9.388;2023-02-12T10:48:15;8.48;;;5.10;;
34481;SDS011;20720;48.886;9.388;2023-02-12T10:53:21;5.97;;;2.67;;
34481;SDS011;20720;48.886;9.388;2023-02-12T10:56:09;5.97;;;3.20;;
34481;SDS011;20720;48.886;9.388;2023-02-12T10:58:36;4.60;;;2.90;;
34481;SDS011;20720;48.886;9.388;2023-02-12T11:01:04;5.25;;;2.65;;
34481;SDS011;20720;48.886;9.388;2023-02-12T11:03:39;4.72;;;2.72;;
34481;SDS011;20720;48.886;9.388;2023-02-12T11:06:12;7.28;;;2.50;;
34481;SDS011;20720;48.886;9.388;2023-02-12T11:08:42;3.72;;;2.17;;
34481;SDS011;20720;48.886;9.388;2023-02-12T11:13:34;5.47;;;2.60;;
34481;SDS011;20720;48.886;9.388;2023-02-12T11:16:01;4.18;;;2.50;;
34481;SDS011;20720;48.886;9.388;2023-02-12T11:18:27;4.53;;;2.50;;
34481;SDS011;20720;48.886;9.388;2023-02-12T11:23:38;4.75;;;2.47;;
34481;SDS011;20720;48.886;9.388;2023-02-12T11:26:07;4.00;;;2.53;;
34481;SDS011;20720;48.886;9.388;2023-02-12T11:31:22;3.47;;;2.05;;
34481;SDS011;20720;48.886;9.388;2023-02-12T11:36:37;4.93;;;3.00;;
34481;SDS011;20720;48.886;9.388;2023-02-12T11:39:08;4.93;;;2.75;;
34481;SDS011;20720;48.886;9.388;2023-02-12T11:41:43;5.50;;;3.40;;
34481;SDS011;20720;48.886;9.388;2023-02-12T11:44:12;5.50;;;2.95;;
34481;SDS011;20720;48.886;9.388;2023-02-12T11:46:48;4.13;;;2.35;;
34481;SDS011;20720;48.886;9.388;2023-02-12T11:49:22;5.15;;;2.60;;
34481;SDS011;20720;48.886;9.388;2023-02-12T11:51:51;4.82;;;2.83;;
34481;SDS011;20720;48.886;9.388;2023-02-12T11:54:27;5.07;;;2.88;;
34481;SDS011;20720;48.886;9.388;2023-02-12T11:56:54;5.85;;;3.22;;
34481;SDS011;20720;48.886;9.388;2023-02-12T12:02:00;5.75;;;3.20;;
34481;SDS011;20720;48.886;9.388;2023-02-12T12:04:40;6.25;;;3.65;;
34481;SDS011;20720;48.886;9.388;2023-02-12T12:07:13;6.40;;;4.18;;
34481;SDS011;20720;48.886;9.388;2023-02-12T12:09:50;5.82;;;3.15;;
34481;SDS011;20720;48.886;9.388;2023-02-12T12:15:16;6.05;;;3.13;;
34481;SDS011;20720;48.886;9.388;2023-02-12T12:23:51;5.95;;;3.42;;
34481;SDS011;20720;48.886;9.388;2023-02-12T12:29:04;6.45;;;4.00;;
34481;SDS011;20720;48.886;9.388;2023-02-12T12:31:41;6.45;;;4.05;;
34481;SDS011;20720;48.886;9.388;2023-02-12T12:34:11;6.65;;;4.35;;
34481;SDS011;20720;48.886;9.388;2023-02-12T12:36:44;7.55;;;4.00;;
34481;SDS011;20720;48.886;9.388;2023-02-12T12:50:35;7.40;;;3.97;;
34481;SDS011;20720;48.886;9.388;2023-02-12T12:55:53;7.78;;;4.47;;
34481;SDS011;20720;48.886;9.388;2023-02-12T12:58:53;6.57;;;3.90;;
34481;SDS011;20720;48.886;9.388;2023-02-12T13:07:03;6.32;;;3.83;;
34481;SDS011;20720;48.886;9.388;2023-02-12T13:14:59;4.82;;;3.30;;
34481;SDS011;20720;48.886;9.388;2023-02-12T13:23:20;3.83;;;2.58;;
34481;SDS011;20720;48.886;9.388;2023-02-12T13:28:24;4.90;;;3.20;;
34481;SDS011;20720;48.886;9.388;2023-02-12T13:30:57;5.18;;;2.97;;
34481;SDS011;20720;48.886;9.388;2023-02-12T13:33:30;4.72;;;2.83;;
34481;SDS011;20720;48.886;9.388;2023-02-12T13:36:03;3.95;;;2.45;;
34481;SDS011;20720;48.886;9.388;2023-02-12T13:38:32;3.50;;;2.40;;
34481;SDS011;20720;48.886;9.388;2023-02-12T13:41:02;4.30;;;2.10;;
34481;SDS011;20720;48.886;9.388;2023-02-12T13:46:12;2.67;;;1.48;;
34481;SDS011;20720;48.886;9.388;2023-02-12T13:48:40;3.10;;;1.80;;
34481;SDS011;20720;48.886;9.388;2023-02-12T13:51:20;2.95;;;1.90;;
34481;SDS011;20720;48.886;9.388;2023-02-12T13:54:11;3.38;;;2.13;;
34481;SDS011;20720;48.886;9.388;2023-02-12T13:56:50;2.08;;;1.42;;
34481;SDS011;20720;48.886;9.388;2023-02-12T14:02:04;4.72;;;2.17;;
34481;SDS011;20720;48.886;9.388;2023-02-12T14:07:16;4.25;;;2.42;;
34481;SDS011;20720;48.886;9.388;2023-02-12T14:09:59;3.42;;;2.30;;
34481;SDS011;20720;48.886;9.388;2023-02-12T14:12:33;3.35;;;2.10;;
34481;SDS011;20720;48.886;9.388;2023-02-12T14:18:00;3.28;;;2.00;;
34481;SDS011;20720;48.886;9.388;2023-02-12T14:20:31;4.10;;;2.88;;
34481;SDS011;20720;48.886;9.388;2023-02-12T14:25:29;3.13;;;1.90;;
34481;SDS011;20720;48.886;9.388;2023-02-12T14:31:37;5.78;;;2.30;;
34481;SDS011;20720;48.886;9.388;2023-02-12T14:38:58;3.65;;;2.00;;
34481;SDS011;20720;48.886;9.388;2023-02-12T14:41:30;3.20;;;1.63;;
34481;SDS011;20720;48.886;9.388;2023-02-12T14:46:56;2.95;;;2.03;;
34481;SDS011;20720;48.886;9.388;2023-02-12T14:52:05;3.72;;;2.25;;
34481;SDS011;20720;48.886;9.388;2023-02-12T14:54:44;3.35;;;1.98;;
34481;SDS011;20720;48.886;9.388;2023-02-12T14:57:29;3.03;;;2.05;;
34481;SDS011;20720;48.886;9.388;2023-02-12T15:02:27;4.78;;;2.30;;
34481;SDS011;20720;48.886;9.388;2023-02-12T15:05:00;2.83;;;2.00;;
34481;SDS011;20720;48.886;9.388;2023-02-12T15:07:30;3.78;;;2.25;;
34481;SDS011;20720;48.886;9.388;2023-02-12T15:10:02;4.63;;;2.33;;
34481;SDS011;20720;48.886;9.388;2023-02-12T15:12:36;5.82;;;2.22;;
34481;SDS011;20720;48.886;9.388;2023-02-12T15:15:10;4.25;;;2.20;;
34481;SDS011;20720;48.886;9.388;2023-02-12T15:17:36;3.53;;;2.30;;
34481;SDS011;20720;48.886;9.388;2023-02-12T15:20:07;4.13;;;2.88;;
34481;SDS011;20720;48.886;9.388;2023-02-12T15:22:40;3.10;;;2.08;;
34481;SDS011;20720;48.886;9.388;2023-02-12T15:25:26;3.92;;;2.47;;
34481;SDS011;20720;48.886;9.388;2023-02-12T15:27:57;3.30;;;2.22;;
34481;SDS011;20720;48.886;9.388;2023-02-12T15:30:25;3.20;;;1.85;;
34481;SDS011;20720;48.886;9.388;2023-02-12T15:33:03;4.38;;;2.70;;
34481;SDS011;20720;48.886;9.388;2023-02-12T15:35:31;3.50;;;2.05;;
34481;SDS011;20720;48.886;9.388;2023-02-12T15:37:58;3.83;;;2.40;;
34481;SDS011;20720;48.886;9.388;2023-02-12T15:40:26;4.50;;;2.80;;
34481;SDS011;20720;48.886;9.388;2023-02-12T15:45:26;5.70;;;3.45;;
34481;SDS011;20720;48.886;9.388;2023-02-12T15:48:00;6.50;;;3.20;;
34481;SDS011;20720;48.886;9.388;2023-02-12T15:50:29;5.18;;;3.10;;
34481;SDS011;20720;48.886;9.388;2023-02-12T15:52:57;4.57;;;2.80;;
34481;SDS011;20720;48.886;9.388;2023-02-12T15:55:23;4.25;;;2.50;;
34481;SDS011;20720;48.886;9.388;2023-02-12T15:57:52;6.72;;;3.67;;
34481;SDS011;20720;48.886;9.388;2023-02-12T16:02:53;7.05;;;3.20;;
34481;SDS011;20720;48.886;9.388;2023-02-12T16:05:18;4.88;;;2.70;;
34481;SDS011;20720;48.886;9.388;2023-02-12T16:07:45;3.90;;;2.38;;
34481;SDS011;20720;48.886;9.388;2023-02-12T16:10:15;5.00;;;2.85;;
34481;SDS011;20720;48.886;9.388;2023-02-12T16:12:43;3.58;;;2.30;;
34481;SDS011;20720;48.886;9.388;2023-02-12T16:15:26;4.88;;;2.58;;
34481;SDS011;20720;48.886;9.388;2023-02-12T16:17:55;3.95;;;2.28;;
34481;SDS011;20720;48.886;9.388;2023-02-12T16:20:23;6.00;;;2.63;;
34481;SDS011;20720;48.886;9.388;2023-02-12T16:22:53;4.93;;;2.90;;
34481;SDS011;20720;48.886;9.388;2023-02-12T16:25:20;4.75;;;2.58;;
34481;SDS011;20720;48.886;9.388;2023-02-12T16:28:01;5.07;;;3.17;;
34481;SDS011;20720;48.886;9.388;2023-02-12T16:30:30;7.35;;;3.08;;
34481;SDS011;20720;48.886;9.388;2023-02-12T16:32:57;5.03;;;2.85;;
34481;SDS011;20720;48.886;9.388;2023-02-12T16:35:25;5.25;;;3.13;;
34481;SDS011;20720;48.886;9.388;2023-02-12T16:37:59;5.55;;;3.28;;
34481;SDS011;20720;48.886;9.388;2023-02-12T16:40:44;6.25;;;3.28;;
34481;SDS011;20720;48.886;9.388;2023-02-12T16:43:39;6.32;;;3.55;;
34481;SDS011;20720;48.886;9.388;2023-02-12T16:46:05;5.40;;;3.10;;
34481;SDS011;20720;48.886;9.388;2023-02-12T16:48:36;6.97;;;3.35;;
34481;SDS011;20720;48.886;9.388;2023-02-12T16:51:04;6.45;;;3.28;;
34481;SDS011;20720;48.886;9.388;2023-02-12T16:53:31;8.15;;;3.10;;
34481;SDS011;20720;48.886;9.388;2023-02-12T16:56:00;5.72;;;3.22;;
34481;SDS011;20720;48.886;9.388;2023-02-12T16:58:27;6.47;;;3.45;;
34481;SDS011;20720;48.886;9.388;2023-02-12T17:00:53;7.07;;;4.47;;
34481;SDS011;20720;48.886;9.388;2023-02-12T17:03:24;8.80;;;3.97;;
34481;SDS011;20720;48.886;9.388;2023-02-12T17:05:50;8.23;;;4.53;;
34481;SDS011;20720;48.886;9.388;2023-02-12T17:08:17;6.75;;;4.30;;
34481;SDS011;20720;48.886;9.388;2023-02-12T17:10:45;8.30;;;4.35;;
34481;SDS011;20720;48.886;9.388;2023-02-12T17:13:14;7.32;;;4.25;;
34481;SDS011;20720;48.886;9.388;2023-02-12T17:15:41;9.60;;;5.60;;
34481;SDS011;20720;48.886;9.388;2023-02-12T17:18:11;9.60;;;5.45;;
34481;SDS011;20720;48.886;9.388;2023-02-12T17:20:40;9.73;;;4.93;;
34481;SDS011;20720;48.886;9.388;2023-02-12T17:23:09;9.90;;;5.15;;
34481;SDS011;20720;48.886;9.388;2023-02-12T17:25:35;10.23;;;5.25;;
34481;SDS011;20720;48.886;9.388;2023-02-12T17:28:07;12.40;;;6.32;;
34481;SDS011;20720;48.886;9.388;2023-02-12T17:30:39;12.77;;;6.75;;
34481;SDS011;20720;48.886;9.388;2023-02-12T17:33:09;16.33;;;9.02;;
34481;SDS011;20720;48.886;9.388;2023-02-12T17:35:36;14.70;;;8.32;;
34481;SDS011;20720;48.886;9.388;2023-02-12T17:38:02;12.88;;;6.63;;